Accueil
METAR-TAF:

METAR-TAF

Aéroports :

Aéroport international de N'Djaména

Ndjamena, Tchad

latitude: 12-08N, longitude: 015-02E, altitude: 295 m

Observation

Le bulletin a été fait il y a 1 heure et 0 minutes, à 23:00 UTC
Vent 10 kt de nord
Température 20°C
Humidité 18%
Pression 1016 hPa
Visibilité: 6000 m

METAR: FTTJ 262300Z 01010KT 6000 NSC 20/M05 Q1016 TEMPO 4500

Heure: 01:00 (00:00 UTC)

Prévision

Le bulletin a été fait il y a 1 heure et 0 minutes, à 23:00 UTC
Prévision valable du 27 à 00 UTC au 28 à 06 UTC
Vent 6 kt de nord
Visibilité: 6000 m
Temporairement
du 27 à 02 UTC au 27 à 07 UTC
Visibilité: 4000 m
poussière généralisée
Temporairement
du 27 à 07 UTC au 27 à 14 UTC
Vent 12 kt de nord/nord-est
Visibilité: 5000 m
Chasse-poussière élevée

TAF: FTTJ 262300Z 2700/2806 36006KT 6000 NSC TEMPO 2702/2707 4000 DU TEMPO 2707/2714 02012KT 5000 BLDU

Observations et prévisions météorologiques de plus de 4000 aéroports (messages METAR et TAF).

Les stations disponibles sont représentées par des disques jaunes et rouges sur la carte.

Passer la souris dessus pour voir le nom de la station.

Cliquer dessus pour voir les observations et prévisions météorologiques.

Pour changer de carte: cliquez sur les boutons verts avec une croix noire pour zoomer, sur le bouton vert avec un tiret pour effectuer un zoom arrière, ou sur les flèches vertes pour les cartes adjacentes.


METAR-TAF: